createdAt,value
2022-10-05T00:00:14.020Z,86.86
2022-10-05T00:01:14.088Z,86.80
2022-10-05T00:02:14.075Z,86.87
2022-10-05T00:03:14.057Z,86.99
2022-10-05T00:04:14.275Z,87.28
2022-10-05T00:05:14.131Z,87.12
2022-10-05T00:06:14.009Z,86.88
2022-10-05T00:07:14.086Z,86.70
2022-10-05T00:08:13.849Z,86.69
2022-10-05T00:09:14.088Z,86.76
2022-10-05T00:10:14.016Z,86.90
2022-10-05T00:11:13.850Z,86.85
2022-10-05T00:12:13.940Z,86.99
2022-10-05T00:13:14.085Z,87.00
2022-10-05T00:14:14.245Z,86.99
2022-10-05T00:15:13.929Z,87.00
2022-10-05T00:16:14.072Z,87.09
2022-10-05T00:17:14.087Z,87.07
2022-10-05T00:18:14.247Z,87.00
2022-10-05T00:19:14.085Z,86.96
2022-10-05T00:20:13.925Z,86.93
2022-10-05T00:21:13.766Z,86.89
2022-10-05T00:22:13.702Z,86.90
2022-10-05T00:23:14.087Z,86.95
2022-10-05T00:24:13.925Z,86.98
2022-10-05T00:25:13.771Z,87.15
2022-10-05T00:26:13.695Z,86.99
2022-10-05T00:27:13.764Z,86.94
2022-10-05T00:28:13.742Z,87.17
2022-10-05T00:29:13.571Z,87.40
2022-10-05T00:30:13.929Z,87.16
2022-10-05T00:31:13.564Z,87.07
2022-10-05T00:32:13.766Z,87.01
2022-10-05T00:33:13.772Z,87.04
2022-10-05T00:34:13.606Z,86.99
2022-10-05T00:35:13.535Z,87.12
2022-10-05T00:36:13.608Z,86.96
2022-10-05T00:37:13.605Z,87.03
2022-10-05T00:38:13.706Z,87.41
2022-10-05T00:39:13.591Z,87.61
2022-10-05T00:40:13.930Z,87.68
2022-10-05T00:41:13.766Z,87.58
2022-10-05T00:42:13.607Z,87.52
2022-10-05T00:43:13.451Z,87.40
2022-10-05T00:44:13.368Z,87.10
2022-10-05T00:45:13.479Z,87.17
2022-10-05T00:46:13.445Z,86.98
2022-10-05T00:47:13.454Z,87.01
2022-10-05T00:48:13.606Z,86.94
2022-10-05T00:49:13.766Z,86.84
2022-10-05T00:50:13.610Z,86.75
2022-10-05T00:51:13.769Z,87.14
2022-10-05T00:52:13.284Z,87.10
2022-10-05T00:53:13.293Z,86.83
2022-10-05T00:54:18.071Z,86.98
2022-10-05T00:55:13.460Z,86.85
2022-10-05T00:56:13.365Z,86.81
2022-10-05T00:57:13.301Z,86.62
2022-10-05T00:58:13.376Z,86.85
2022-10-05T00:59:13.212Z,87.04
2022-10-05T01:00:13.604Z,87.06
2022-10-05T01:01:13.238Z,86.98
2022-10-05T01:02:13.228Z,86.96
2022-10-05T01:03:13.283Z,87.21
2022-10-05T01:04:13.285Z,87.19
2022-10-05T01:05:13.130Z,87.11
2022-10-05T01:06:13.092Z,87.45
2022-10-05T01:07:13.207Z,87.40
2022-10-05T01:08:13.293Z,87.06
2022-10-05T01:09:13.125Z,86.64
2022-10-05T01:10:13.055Z,86.41
2022-10-05T01:11:13.125Z,86.45
2022-10-05T01:12:13.289Z,86.72
2022-10-05T01:13:13.214Z,86.95
2022-10-05T01:14:13.045Z,86.95
2022-10-05T01:15:13.448Z,86.93
2022-10-05T01:16:13.094Z,86.99
2022-10-05T01:17:12.963Z,86.92
2022-10-05T01:18:13.043Z,86.82
2022-10-05T01:19:13.214Z,86.92
2022-10-05T01:20:12.965Z,87.17
2022-10-05T01:21:12.952Z,86.67
2022-10-05T01:22:13.135Z,86.69
2022-10-05T01:23:13.125Z,86.61
2022-10-05T01:24:13.048Z,86.50
2022-10-05T01:25:12.905Z,86.60
2022-10-05T01:26:13.285Z,86.61
2022-10-05T01:27:12.996Z,86.64
2022-10-05T01:28:13.081Z,86.67
2022-10-05T01:29:12.883Z,86.77
2022-10-05T01:30:12.965Z,86.82
2022-10-05T01:31:13.029Z,86.93
2022-10-05T01:32:12.965Z,86.72
2022-10-05T01:33:12.826Z,86.81
2022-10-05T01:34:12.965Z,86.73
2022-10-05T01:35:13.125Z,86.61
2022-10-05T01:36:12.738Z,86.65
2022-10-05T01:37:12.816Z,86.53
2022-10-05T01:38:12.762Z,86.46
2022-10-05T01:39:12.809Z,86.35
2022-10-05T01:40:12.977Z,86.35
2022-10-05T01:41:12.814Z,86.33
2022-10-05T01:42:12.986Z,86.26
2022-10-05T01:43:12.823Z,86.28
2022-10-05T01:44:12.980Z,86.29
2022-10-05T01:45:12.806Z,86.52
2022-10-05T01:46:13.036Z,86.79
2022-10-05T01:47:12.579Z,86.74
2022-10-05T01:48:12.967Z,86.82
2022-10-05T01:49:12.804Z,86.81
2022-10-05T01:50:12.973Z,86.67
2022-10-05T01:51:12.645Z,87.15
2022-10-05T01:52:12.967Z,87.30
2022-10-05T01:53:12.805Z,86.96
2022-10-05T01:54:13.035Z,86.88
2022-10-05T01:55:12.832Z,86.67
2022-10-05T01:56:12.647Z,86.73
2022-10-05T01:57:12.484Z,86.80
2022-10-05T01:58:12.426Z,86.69
2022-10-05T01:59:12.485Z,86.68
2022-10-05T02:00:12.644Z,86.71
2022-10-05T02:01:12.542Z,86.94
2022-10-05T02:02:12.710Z,86.93
2022-10-05T02:03:12.491Z,86.92
2022-10-05T02:04:17.727Z,86.88
2022-10-05T02:05:13.443Z,86.94
2022-10-05T02:06:12.328Z,87.19
2022-10-05T02:07:12.484Z,87.37
2022-10-05T02:08:12.409Z,87.35
2022-10-05T02:09:12.323Z,87.55
2022-10-05T02:10:12.426Z,87.41
2022-10-05T02:11:12.504Z,87.08
2022-10-05T02:12:12.323Z,86.81
2022-10-05T02:13:12.488Z,86.77
2022-10-05T02:14:12.333Z,86.76
2022-10-05T02:15:12.485Z,86.92
2022-10-05T02:16:12.215Z,86.98
2022-10-05T02:17:12.490Z,87.08
2022-10-05T02:18:12.326Z,87.35
2022-10-05T02:19:12.247Z,87.39
2022-10-05T02:20:12.324Z,87.47
2022-10-05T02:21:12.322Z,87.33
2022-10-05T02:22:12.324Z,87.14
2022-10-05T02:23:12.164Z,87.14
2022-10-05T02:24:12.324Z,87.32
2022-10-05T02:25:12.257Z,87.46
2022-10-05T02:26:12.324Z,87.52
2022-10-05T02:27:12.483Z,87.49
2022-10-05T02:28:12.134Z,87.35
2022-10-05T02:29:12.005Z,87.42
2022-10-05T02:30:16.350Z,87.64
2022-10-05T02:31:11.987Z,87.44
2022-10-05T02:32:12.130Z,87.50
2022-10-05T02:33:12.167Z,87.38
2022-10-05T02:34:12.005Z,87.42
2022-10-05T02:35:11.976Z,87.28
2022-10-05T02:36:11.924Z,87.17
2022-10-05T02:37:11.928Z,87.20
2022-10-05T02:38:12.007Z,87.14
2022-10-05T02:39:12.163Z,87.31
2022-10-05T02:40:12.327Z,87.10
2022-10-05T02:41:12.164Z,86.90
2022-10-05T02:42:11.843Z,86.95
2022-10-05T02:43:11.935Z,87.11
2022-10-05T02:44:11.842Z,87.29
2022-10-05T02:45:12.162Z,87.07
2022-10-05T02:46:11.823Z,86.87
2022-10-05T02:47:11.842Z,87.12
2022-10-05T02:48:11.770Z,87.31
2022-10-05T02:49:11.844Z,87.22
2022-10-05T02:50:11.773Z,87.28
2022-10-05T02:51:11.842Z,87.47
2022-10-05T02:52:11.782Z,87.35
2022-10-05T02:53:11.927Z,87.54
2022-10-05T02:54:12.008Z,87.40
2022-10-05T02:55:11.845Z,87.21
2022-10-05T02:56:11.773Z,86.75
2022-10-05T02:57:11.682Z,86.88
2022-10-05T02:58:11.693Z,86.99
2022-10-05T02:59:11.845Z,87.07
2022-10-05T03:00:11.681Z,87.14
2022-10-05T03:01:11.862Z,87.16
2022-10-05T03:02:11.667Z,87.06
2022-10-05T03:03:11.615Z,87.04
2022-10-05T03:04:11.682Z,87.06
2022-10-05T03:05:11.803Z,87.38
2022-10-05T03:06:11.521Z,87.38
2022-10-05T03:07:14.095Z,87.40
2022-10-05T03:08:11.765Z,87.02
2022-10-05T03:09:11.527Z,86.88
2022-10-05T03:10:11.684Z,86.93
2022-10-05T03:11:11.525Z,87.04
2022-10-05T03:12:12.008Z,87.07
2022-10-05T03:13:11.522Z,86.99
2022-10-05T03:14:11.460Z,86.99
2022-10-05T03:15:11.857Z,87.12
2022-10-05T03:16:11.483Z,87.08
2022-10-05T03:17:11.843Z,87.11
2022-10-05T03:18:11.689Z,87.57
2022-10-05T03:19:11.341Z,87.26
2022-10-05T03:20:11.685Z,86.89
2022-10-05T03:21:11.397Z,87.06
2022-10-05T03:22:11.698Z,87.04
2022-10-05T03:23:11.328Z,87.39
2022-10-05T03:24:11.363Z,87.86
2022-10-05T03:25:11.477Z,87.62
2022-10-05T03:26:11.312Z,87.47
2022-10-05T03:27:11.348Z,87.34
2022-10-05T03:28:11.325Z,87.35
2022-10-05T03:29:11.338Z,87.32
2022-10-05T03:30:11.692Z,87.32
2022-10-05T03:31:11.359Z,87.44
2022-10-05T03:32:11.360Z,87.83
2022-10-05T03:33:11.360Z,87.82
2022-10-05T03:34:11.365Z,87.36
2022-10-05T03:35:11.295Z,87.13
2022-10-05T03:36:11.139Z,86.93
2022-10-05T03:37:11.306Z,86.90
2022-10-05T03:38:11.362Z,86.93
2022-10-05T03:39:11.107Z,86.83
2022-10-05T03:40:11.139Z,86.91
2022-10-05T03:41:11.281Z,87.04
2022-10-05T03:42:11.146Z,87.16
2022-10-05T03:43:11.308Z,87.39
2022-10-05T03:44:11.364Z,87.38
2022-10-05T03:45:11.215Z,87.30
2022-10-05T03:46:11.198Z,87.50
2022-10-05T03:47:10.973Z,87.37
2022-10-05T03:48:11.366Z,87.30
2022-10-05T03:49:11.217Z,87.25
2022-10-05T03:50:11.043Z,87.11
2022-10-05T03:51:11.062Z,87.02
2022-10-05T03:52:10.997Z,87.13
2022-10-05T03:53:11.041Z,87.06
2022-10-05T03:54:10.908Z,87.17
2022-10-05T03:55:10.889Z,87.24
2022-10-05T03:56:10.959Z,87.44
2022-10-05T03:57:10.885Z,87.57
2022-10-05T03:58:11.366Z,87.37
2022-10-05T03:59:10.885Z,87.17
2022-10-05T04:00:10.839Z,87.19
2022-10-05T04:01:10.924Z,87.21
2022-10-05T04:02:10.875Z,86.90
2022-10-05T04:03:10.887Z,86.73
2022-10-05T04:04:10.890Z,86.69
2022-10-05T04:05:10.890Z,86.73
2022-10-05T04:06:10.745Z,87.00
2022-10-05T04:07:10.690Z,87.00
2022-10-05T04:08:10.809Z,86.94
2022-10-05T04:09:10.898Z,87.24
2022-10-05T04:10:10.830Z,87.18
2022-10-05T04:11:10.884Z,87.35
2022-10-05T04:12:11.047Z,86.95
2022-10-05T04:13:10.916Z,87.29
2022-10-05T04:14:10.758Z,87.17
2022-10-05T04:15:14.117Z,87.02
2022-10-05T04:16:12.067Z,87.17
2022-10-05T04:17:11.228Z,87.27
2022-10-05T04:18:11.049Z,87.26
2022-10-05T04:19:10.890Z,87.21
2022-10-05T04:20:10.568Z,87.26
2022-10-05T04:21:10.886Z,87.28
2022-10-05T04:22:11.056Z,87.30
2022-10-05T04:23:10.895Z,87.48
2022-10-05T04:24:10.497Z,87.65
2022-10-05T04:25:10.568Z,87.52
2022-10-05T04:26:10.538Z,87.71
2022-10-05T04:27:10.727Z,87.91
2022-10-05T04:28:10.564Z,88.14
2022-10-05T04:29:10.662Z,88.39
2022-10-05T04:30:10.407Z,88.77
2022-10-05T04:31:10.607Z,88.91
2022-10-05T04:32:10.494Z,89.00
2022-10-05T04:33:11.210Z,88.85
2022-10-05T04:34:10.416Z,88.37
2022-10-05T04:35:10.359Z,88.04
2022-10-05T04:36:10.406Z,87.93
2022-10-05T04:37:10.406Z,87.80
2022-10-05T04:38:10.405Z,87.79
2022-10-05T04:39:10.565Z,87.45
2022-10-05T04:40:10.409Z,87.69
2022-10-05T04:41:10.341Z,87.72
2022-10-05T04:42:10.487Z,87.74
2022-10-05T04:43:10.334Z,88.16
2022-10-05T04:44:10.518Z,88.46
2022-10-05T04:45:10.257Z,88.53
2022-10-05T04:46:10.753Z,88.43
2022-10-05T04:47:10.381Z,88.12
2022-10-05T04:48:10.189Z,87.86
2022-10-05T04:49:10.176Z,87.58
2022-10-05T04:50:10.405Z,87.43
2022-10-05T04:51:10.365Z,87.43
2022-10-05T04:52:10.408Z,87.76
2022-10-05T04:53:10.246Z,88.09
2022-10-05T04:54:10.407Z,88.49
2022-10-05T04:55:10.325Z,88.43
2022-10-05T04:56:10.164Z,87.92
2022-10-05T04:57:10.098Z,87.90
2022-10-05T04:58:10.168Z,88.02
2022-10-05T04:59:10.024Z,88.49
2022-10-05T05:00:10.099Z,88.17
2022-10-05T05:01:10.093Z,87.80
2022-10-05T05:02:10.087Z,87.39
2022-10-05T05:03:10.095Z,87.22
2022-10-05T05:04:10.174Z,87.35
2022-10-05T05:05:10.886Z,87.45
2022-10-05T05:06:17.471Z,87.52
2022-10-05T05:07:11.216Z,87.70
2022-10-05T05:08:10.169Z,87.51
2022-10-05T05:09:10.103Z,87.67
2022-10-05T05:10:10.405Z,87.88
2022-10-05T05:11:15.042Z,87.85
2022-10-05T05:12:11.515Z,87.99
2022-10-05T05:13:10.014Z,87.95
2022-10-05T05:14:09.853Z,88.17
2022-10-05T05:15:10.094Z,88.38
2022-10-05T05:16:09.925Z,88.32
2022-10-05T05:17:13.162Z,87.67
2022-10-05T05:18:10.097Z,87.30
2022-10-05T05:19:09.935Z,86.93
2022-10-05T05:20:10.108Z,86.88
2022-10-05T05:21:09.773Z,87.09
2022-10-05T05:22:09.861Z,87.02
2022-10-05T05:23:09.932Z,87.04
2022-10-05T05:24:09.848Z,87.16
2022-10-05T05:25:10.280Z,87.26
2022-10-05T05:26:09.770Z,87.32
2022-10-05T05:27:09.928Z,87.39
2022-10-05T05:28:10.119Z,87.55
2022-10-05T05:29:09.789Z,87.63
2022-10-05T05:30:09.764Z,87.59
2022-10-05T05:31:09.733Z,87.45
2022-10-05T05:32:09.854Z,87.46
2022-10-05T05:33:09.783Z,87.73
2022-10-05T05:34:09.860Z,87.79
2022-10-05T05:35:09.694Z,87.87
2022-10-05T05:36:09.540Z,88.06
2022-10-05T05:37:09.931Z,88.27
2022-10-05T05:38:09.557Z,88.38
2022-10-05T05:39:09.609Z,88.38
2022-10-05T05:40:09.766Z,88.55
2022-10-05T05:41:09.604Z,88.67
2022-10-05T05:42:09.768Z,88.73
2022-10-05T05:43:09.611Z,88.71
2022-10-05T05:44:09.764Z,88.81
2022-10-05T05:45:10.562Z,88.92
2022-10-05T05:46:09.664Z,88.77
2022-10-05T05:47:10.204Z,88.58
2022-10-05T05:48:09.522Z,88.72
2022-10-05T05:49:09.616Z,88.40
2022-10-05T05:50:10.087Z,88.46
2022-10-05T05:51:09.603Z,88.63
2022-10-05T05:52:09.766Z,88.66
2022-10-05T05:53:09.612Z,88.52
2022-10-05T05:54:09.763Z,88.54
2022-10-05T05:55:09.443Z,88.65
2022-10-05T05:56:09.442Z,88.33
2022-10-05T05:57:09.422Z,88.27
2022-10-05T05:58:09.542Z,88.65
2022-10-05T05:59:13.533Z,88.65
2022-10-05T06:00:09.546Z,88.49
2022-10-05T06:01:25.022Z,88.32
2022-10-05T06:02:10.532Z,88.29
2022-10-05T06:03:09.293Z,88.53
2022-10-05T06:04:09.448Z,88.59
2022-10-05T06:05:09.282Z,88.60
2022-10-05T06:06:09.443Z,89.02
2022-10-05T06:07:09.385Z,88.92
2022-10-05T06:08:09.357Z,89.07
2022-10-05T06:09:09.129Z,89.40
2022-10-05T06:10:09.210Z,89.53
2022-10-05T06:11:09.303Z,89.37
2022-10-05T06:12:09.443Z,89.51
2022-10-05T06:13:09.922Z,89.50
2022-10-05T06:14:09.282Z,89.06
2022-10-05T06:15:09.931Z,88.79
2022-10-05T06:16:09.175Z,88.80
2022-10-05T06:17:09.045Z,88.62
2022-10-05T06:18:09.224Z,88.49
2022-10-05T06:19:09.109Z,88.48
2022-10-05T06:20:09.442Z,88.49
2022-10-05T06:21:09.282Z,88.38
2022-10-05T06:22:09.451Z,88.29
2022-10-05T06:23:09.065Z,88.09
2022-10-05T06:24:09.127Z,87.91
2022-10-05T06:25:09.129Z,87.99
2022-10-05T06:26:10.927Z,87.78
2022-10-05T06:27:08.973Z,87.60
2022-10-05T06:28:09.281Z,87.50
2022-10-05T06:29:08.981Z,87.56
2022-10-05T06:30:08.975Z,87.78
2022-10-05T06:31:09.036Z,87.71
2022-10-05T06:32:09.029Z,87.33
2022-10-05T06:33:08.818Z,87.12
2022-10-05T06:34:09.121Z,87.13
2022-10-05T06:35:10.270Z,87.17
2022-10-05T06:36:09.122Z,86.85
2022-10-05T06:37:09.930Z,86.46
2022-10-05T06:38:08.800Z,86.48
2022-10-05T06:39:08.753Z,86.50
2022-10-05T06:40:08.891Z,86.61
2022-10-05T06:41:08.800Z,86.64
2022-10-05T06:42:08.979Z,87.28
2022-10-05T06:43:08.962Z,86.70
2022-10-05T06:44:09.150Z,86.26
2022-10-05T06:45:08.963Z,86.34
2022-10-05T06:46:08.952Z,86.75
2022-10-05T06:47:09.451Z,86.54
2022-10-05T06:48:09.130Z,85.83
2022-10-05T06:49:09.612Z,85.40
2022-10-05T06:50:08.613Z,85.26
2022-10-05T06:51:08.653Z,85.43
2022-10-05T06:52:08.799Z,85.59
2022-10-05T06:53:10.901Z,85.68
2022-10-05T06:54:09.460Z,85.97
2022-10-05T06:55:13.279Z,86.25
2022-10-05T06:56:09.778Z,86.19
2022-10-05T06:57:08.480Z,85.86
2022-10-05T06:58:08.652Z,85.41
2022-10-05T06:59:08.487Z,85.04
2022-10-05T07:00:08.606Z,85.10
2022-10-05T07:01:09.054Z,84.98
2022-10-05T07:02:08.536Z,85.66
2022-10-05T07:03:08.404Z,85.57
2022-10-05T07:04:08.570Z,85.47
2022-10-05T07:05:08.498Z,84.81
2022-10-05T07:06:08.582Z,84.51
2022-10-05T07:07:08.643Z,84.26
2022-10-05T07:08:08.851Z,84.95
2022-10-05T07:09:08.414Z,84.39
2022-10-05T07:10:08.489Z,84.05
2022-10-05T07:11:08.641Z,83.99
2022-10-05T07:12:08.594Z,84.28
2022-10-05T07:13:08.479Z,83.64
2022-10-05T07:14:12.482Z,83.47
2022-10-05T07:15:08.330Z,83.54
2022-10-05T07:16:08.512Z,83.64
2022-10-05T07:17:08.639Z,83.66
2022-10-05T07:18:08.271Z,83.95
2022-10-05T07:19:14.726Z,84.22
2022-10-05T07:20:08.338Z,84.08
2022-10-05T07:21:09.602Z,83.88
2022-10-05T07:23:09.608Z,83.86
2022-10-05T07:24:12.640Z,83.73
2022-10-05T07:25:08.639Z,84.48
2022-10-05T07:26:08.352Z,83.89
2022-10-05T07:27:08.971Z,83.60
2022-10-05T07:28:08.543Z,83.21
2022-10-05T07:29:08.123Z,83.15
2022-10-05T07:30:08.258Z,83.03
2022-10-05T07:31:08.423Z,83.29
2022-10-05T07:32:08.178Z,82.66
2022-10-05T07:33:08.015Z,82.43
2022-10-05T07:34:08.521Z,81.70
2022-10-05T07:35:08.019Z,81.92
2022-10-05T07:36:08.170Z,81.24
2022-10-05T07:37:08.013Z,80.95
2022-10-05T07:38:29.291Z,81.27
2022-10-05T07:39:07.921Z,82.10
2022-10-05T07:40:07.936Z,82.53
2022-10-05T07:41:08.002Z,82.60
2022-10-05T07:42:07.931Z,81.43
2022-10-05T07:43:08.004Z,81.10
2022-10-05T07:44:12.514Z,81.12
2022-10-05T07:45:08.982Z,80.12
2022-10-05T07:46:08.073Z,80.63
2022-10-05T07:47:11.861Z,81.51
2022-10-05T07:48:07.961Z,81.15
2022-10-05T07:49:08.752Z,80.83
2022-10-05T07:50:07.845Z,79.27
2022-10-05T07:51:08.329Z,79.82
2022-10-05T07:52:07.959Z,79.97
2022-10-05T07:53:07.850Z,80.12
2022-10-05T07:54:07.920Z,80.18
2022-10-05T07:55:08.010Z,80.05
2022-10-05T07:56:07.858Z,80.25
2022-10-05T07:57:07.776Z,80.12
2022-10-05T07:58:07.939Z,80.05
2022-10-05T07:59:08.009Z,79.34
2022-10-05T08:00:07.846Z,78.84
2022-10-05T08:01:09.283Z,79.29
2022-10-05T08:02:07.992Z,79.90
2022-10-05T08:03:07.669Z,79.24
2022-10-05T08:04:07.847Z,78.76
2022-10-05T08:05:08.005Z,78.58
2022-10-05T08:06:07.841Z,79.03
2022-10-05T08:07:07.684Z,78.83
2022-10-05T08:08:07.721Z,77.82
2022-10-05T08:09:07.690Z,78.63
2022-10-05T08:10:07.844Z,78.45
2022-10-05T08:11:07.690Z,78.62
2022-10-05T08:12:07.855Z,79.47
2022-10-05T08:13:07.491Z,79.05
2022-10-05T08:14:07.528Z,78.33
2022-10-05T08:15:07.523Z,78.48
2022-10-05T08:16:07.603Z,78.21
2022-10-05T08:17:07.459Z,77.66
2022-10-05T08:18:07.538Z,77.48
2022-10-05T08:19:07.450Z,76.65
2022-10-05T08:20:07.847Z,76.58
2022-10-05T08:21:07.459Z,76.94
2022-10-05T08:22:07.360Z,76.85
2022-10-05T08:23:07.530Z,76.47
2022-10-05T08:24:07.370Z,76.63
2022-10-05T08:25:11.846Z,76.85
2022-10-05T08:26:07.884Z,77.07
2022-10-05T08:27:07.370Z,77.67
2022-10-05T08:28:07.383Z,77.02
2022-10-05T08:29:10.288Z,77.88
2022-10-05T08:30:08.494Z,77.34
2022-10-05T08:31:07.433Z,76.79
2022-10-05T08:32:07.859Z,77.00
2022-10-05T08:33:07.361Z,77.04
2022-10-05T08:34:07.878Z,77.04
2022-10-05T08:35:07.211Z,77.57
2022-10-05T08:36:07.370Z,77.26
2022-10-05T08:37:07.370Z,77.42
2022-10-05T08:38:07.373Z,76.87
2022-10-05T08:39:07.382Z,77.48
2022-10-05T08:40:07.372Z,78.18
2022-10-05T08:41:07.143Z,78.21
2022-10-05T08:42:07.214Z,78.51
2022-10-05T08:43:07.155Z,78.84
2022-10-05T08:44:07.379Z,78.21
2022-10-05T08:45:07.370Z,78.20
2022-10-05T08:46:07.583Z,78.31
2022-10-05T08:47:07.374Z,78.58
2022-10-05T08:48:07.207Z,78.41
2022-10-05T08:49:07.365Z,79.21
2022-10-05T08:50:11.194Z,80.40
2022-10-05T08:51:07.131Z,80.13
2022-10-05T08:52:07.233Z,79.71
2022-10-05T08:53:07.151Z,77.67
2022-10-05T08:54:07.221Z,77.46
2022-10-05T08:55:08.012Z,77.67
2022-10-05T08:56:07.053Z,77.46
2022-10-05T08:57:08.647Z,77.01
2022-10-05T08:58:07.210Z,77.51
2022-10-05T08:59:07.061Z,77.55
2022-10-05T09:00:06.998Z,77.45
2022-10-05T09:01:07.830Z,77.35
2022-10-05T09:02:06.952Z,77.57
2022-10-05T09:03:07.048Z,76.88
2022-10-05T09:04:07.208Z,76.25
2022-10-05T09:05:07.051Z,76.31
2022-10-05T09:06:06.887Z,76.59
2022-10-05T09:07:07.057Z,76.01
2022-10-05T09:08:06.803Z,76.14
2022-10-05T09:09:06.834Z,74.51
2022-10-05T09:10:06.883Z,74.75
2022-10-05T09:11:06.823Z,75.17
2022-10-05T09:12:08.488Z,76.29
2022-10-05T09:13:07.044Z,74.82
2022-10-05T09:14:06.731Z,74.96
2022-10-05T09:15:24.960Z,74.50
2022-10-05T09:16:11.799Z,73.95
2022-10-05T09:17:06.732Z,74.29
2022-10-05T09:18:06.733Z,74.39
2022-10-05T09:19:07.363Z,74.35
2022-10-05T09:20:06.787Z,74.88
2022-10-05T09:21:06.855Z,74.88
2022-10-05T09:22:06.700Z,74.80
2022-10-05T09:23:06.565Z,75.56
2022-10-05T09:24:06.661Z,75.57
2022-10-05T09:25:06.731Z,75.19
2022-10-05T09:26:06.591Z,73.39
2022-10-05T09:27:06.532Z,71.90
2022-10-05T09:28:06.603Z,71.33
2022-10-05T09:29:06.730Z,71.38
2022-10-05T09:30:06.671Z,70.06
2022-10-05T09:31:06.514Z,69.46
2022-10-05T09:32:06.576Z,69.83
2022-10-05T09:33:06.728Z,70.38
2022-10-05T09:34:06.656Z,70.23
2022-10-05T09:35:06.491Z,70.30
2022-10-05T09:36:06.883Z,69.22
2022-10-05T09:37:06.503Z,68.80
2022-10-05T09:38:06.931Z,69.96
2022-10-05T09:39:06.412Z,69.88
2022-10-05T09:40:06.386Z,69.65
2022-10-05T09:41:06.352Z,70.29
2022-10-05T09:42:06.362Z,69.82
2022-10-05T09:43:06.359Z,69.13
2022-10-05T09:44:06.570Z,68.30
2022-10-05T09:45:06.412Z,68.91
2022-10-05T09:46:06.305Z,68.16
2022-10-05T09:47:06.514Z,69.34
2022-10-05T09:48:06.575Z,68.09
2022-10-05T09:49:06.412Z,68.09
2022-10-05T09:50:06.276Z,67.73
2022-10-05T09:51:06.193Z,68.43
2022-10-05T09:52:06.267Z,68.88
2022-10-05T09:53:06.443Z,68.02
2022-10-05T09:54:06.170Z,68.50
2022-10-05T09:55:06.181Z,68.40
2022-10-05T09:56:06.574Z,67.64
2022-10-05T09:57:06.112Z,68.12
2022-10-05T09:58:06.086Z,67.78
2022-10-05T09:59:06.415Z,67.22
2022-10-05T10:01:09.963Z,67.24
2022-10-05T10:02:07.266Z,67.37
2022-10-05T10:03:06.293Z,67.44
2022-10-05T10:04:06.064Z,67.60
2022-10-05T10:05:06.203Z,67.07
2022-10-05T10:06:06.034Z,68.32
2022-10-05T10:07:06.094Z,67.02
2022-10-05T10:08:06.117Z,67.45
2022-10-05T10:09:05.957Z,66.57
2022-10-05T10:10:06.224Z,66.98
2022-10-05T10:11:09.925Z,67.86
2022-10-05T10:12:06.084Z,66.61
2022-10-05T10:13:06.286Z,67.64
2022-10-05T10:14:06.065Z,67.20
2022-10-05T10:15:05.917Z,67.15
2022-10-05T10:16:06.074Z,67.25
2022-10-05T10:17:05.865Z,68.00
2022-10-05T10:18:06.015Z,67.42
2022-10-05T10:19:06.448Z,67.47
2022-10-05T10:20:06.054Z,67.52
2022-10-05T10:21:06.098Z,67.62
2022-10-05T10:22:05.828Z,66.88
2022-10-05T10:23:05.926Z,66.18
2022-10-05T10:24:06.025Z,66.12
2022-10-05T10:25:06.102Z,67.61
2022-10-05T10:26:06.248Z,66.14
2022-10-05T10:27:05.770Z,66.64
2022-10-05T10:28:07.480Z,67.46
2022-10-05T10:29:05.771Z,66.64
2022-10-05T10:30:05.775Z,66.66
2022-10-05T10:31:05.786Z,65.86
2022-10-05T10:32:05.926Z,66.94
2022-10-05T10:33:05.625Z,66.89
2022-10-05T10:34:05.767Z,67.88
2022-10-05T10:35:05.606Z,66.97
2022-10-05T10:36:07.067Z,66.84
2022-10-05T10:37:05.767Z,67.23
2022-10-05T10:38:05.783Z,66.84
2022-10-05T10:39:05.769Z,66.75
2022-10-05T10:40:05.618Z,68.03
2022-10-05T10:41:05.537Z,66.15
2022-10-05T10:42:05.607Z,67.05
2022-10-05T10:43:05.596Z,66.25
2022-10-05T10:44:05.607Z,66.25
2022-10-05T10:45:05.767Z,65.74
2022-10-05T10:46:05.651Z,65.27
2022-10-05T10:47:05.766Z,66.50
2022-10-05T10:48:05.926Z,66.96
2022-10-05T10:49:05.546Z,65.93
2022-10-05T10:50:05.429Z,65.68
2022-10-05T10:51:05.770Z,65.84
2022-10-05T10:52:05.601Z,66.67
2022-10-05T10:53:05.450Z,65.76
2022-10-05T10:54:05.390Z,64.57
2022-10-05T10:55:05.770Z,65.12
2022-10-05T10:56:05.446Z,65.56
2022-10-05T10:57:05.790Z,64.75
2022-10-05T10:58:05.382Z,66.31
2022-10-05T10:59:05.559Z,64.52
2022-10-05T11:00:05.372Z,63.51
2022-10-05T11:01:05.779Z,64.29
2022-10-05T11:02:05.651Z,65.19
2022-10-05T11:03:05.406Z,64.57
2022-10-05T11:04:05.295Z,63.58
2022-10-05T11:05:05.217Z,63.62
2022-10-05T11:06:05.281Z,63.09
2022-10-05T11:07:05.172Z,63.54
2022-10-05T11:08:05.282Z,63.47
2022-10-05T11:09:05.220Z,63.88
2022-10-05T11:10:05.130Z,62.70
2022-10-05T11:11:05.450Z,62.78
2022-10-05T11:12:05.608Z,62.71
2022-10-05T11:13:05.446Z,63.70
2022-10-05T11:14:05.126Z,64.28
2022-10-05T11:15:05.130Z,64.40
2022-10-05T11:16:05.110Z,64.34
2022-10-05T11:17:05.126Z,63.19
2022-10-05T11:18:05.053Z,63.18
2022-10-05T11:19:05.441Z,63.64
2022-10-05T11:20:05.490Z,63.20
2022-10-05T11:21:05.140Z,62.68
2022-10-05T11:22:05.082Z,63.06
2022-10-05T11:23:04.953Z,63.19
2022-10-05T11:24:05.632Z,62.26
2022-10-05T11:25:04.923Z,62.26
2022-10-05T11:26:05.639Z,63.27
2022-10-05T11:27:04.917Z,62.52
2022-10-05T11:28:05.322Z,62.57
2022-10-05T11:29:04.971Z,62.77
2022-10-05T11:30:05.044Z,63.94
2022-10-05T11:31:04.951Z,62.62
2022-10-05T11:32:04.969Z,63.86
2022-10-05T11:33:05.132Z,62.90
2022-10-05T11:34:09.123Z,63.01
2022-10-05T11:35:04.962Z,63.36
2022-10-05T11:36:04.804Z,62.73
2022-10-05T11:37:05.475Z,62.40
2022-10-05T11:38:04.785Z,62.29
2022-10-05T11:39:04.816Z,63.09
2022-10-05T11:40:04.788Z,63.67
2022-10-05T11:41:05.177Z,62.55
2022-10-05T11:42:04.735Z,62.58
2022-10-05T11:43:04.883Z,62.59
2022-10-05T11:44:06.951Z,62.92
2022-10-05T11:45:08.965Z,63.18
2022-10-05T11:46:09.467Z,63.47
2022-10-05T11:47:05.123Z,62.36
2022-10-05T11:48:04.974Z,62.53
2022-10-05T11:49:04.634Z,64.96
2022-10-05T11:50:04.677Z,63.20
2022-10-05T11:51:04.807Z,63.20
2022-10-05T11:52:04.587Z,63.35
2022-10-05T11:53:04.637Z,62.96
2022-10-05T11:54:05.306Z,63.61
2022-10-05T11:55:12.439Z,63.50
2022-10-05T11:56:05.933Z,63.25
2022-10-05T11:57:04.625Z,62.59
2022-10-05T11:58:04.965Z,62.26
2022-10-05T11:59:05.185Z,63.67
2022-10-05T12:00:04.997Z,62.80
2022-10-05T12:01:04.612Z,62.64
2022-10-05T12:02:05.958Z,62.76
2022-10-05T12:03:04.676Z,62.72
2022-10-05T12:04:04.698Z,62.00
2022-10-05T12:05:04.574Z,62.61
2022-10-05T12:06:04.485Z,62.30
2022-10-05T12:07:04.587Z,62.91
2022-10-05T12:08:04.689Z,62.38
2022-10-05T12:09:04.418Z,62.97
2022-10-05T12:10:04.552Z,63.04
2022-10-05T12:11:04.645Z,62.12
2022-10-05T12:12:04.428Z,61.62
2022-10-05T12:13:04.280Z,62.00
2022-10-05T12:14:04.327Z,62.71
2022-10-05T12:15:04.279Z,61.88
2022-10-05T12:16:04.685Z,61.76
2022-10-05T12:17:04.495Z,62.83
2022-10-05T12:18:04.324Z,61.84
2022-10-05T12:19:04.258Z,61.31
2022-10-05T12:20:04.549Z,61.02
2022-10-05T12:21:04.264Z,62.65
2022-10-05T12:22:04.345Z,61.55
2022-10-05T12:23:04.325Z,61.09
2022-10-05T12:24:04.180Z,62.76
2022-10-05T12:25:04.330Z,62.85
2022-10-05T12:26:04.364Z,62.29
2022-10-05T12:27:04.166Z,61.78
2022-10-05T12:28:04.152Z,61.40
2022-10-05T12:29:04.488Z,61.38
2022-10-05T12:30:04.653Z,61.17
2022-10-05T12:31:04.216Z,61.48
2022-10-05T12:32:04.173Z,61.94
2022-10-05T12:33:04.263Z,62.09
2022-10-05T12:34:04.103Z,61.95
2022-10-05T12:35:04.012Z,63.21
2022-10-05T12:36:05.970Z,63.08
2022-10-05T12:37:04.923Z,63.47
2022-10-05T12:38:04.648Z,62.88
2022-10-05T12:39:04.162Z,63.43
2022-10-05T12:40:04.332Z,63.96
2022-10-05T12:41:04.803Z,63.38
2022-10-05T12:42:04.090Z,63.49
2022-10-05T12:43:03.953Z,63.15
2022-10-05T12:44:04.021Z,64.05
2022-10-05T12:45:03.889Z,62.94
2022-10-05T12:46:05.055Z,63.08
2022-10-05T12:47:04.000Z,63.85
2022-10-05T12:48:04.193Z,62.53
2022-10-05T12:49:04.801Z,64.59
2022-10-05T12:50:04.182Z,62.90
2022-10-05T12:51:03.861Z,62.79
2022-10-05T12:52:03.842Z,63.36
2022-10-05T12:53:04.846Z,62.86
2022-10-05T12:54:03.788Z,63.78